createdAt,value
2023-02-15T00:02:42.905Z,1.80
2023-02-15T00:06:07.205Z,1.63
2023-02-15T00:09:31.899Z,1.63
2023-02-15T00:12:54.546Z,1.27
2023-02-15T00:16:17.522Z,1.80
2023-02-15T00:19:41.292Z,1.20
2023-02-15T00:23:04.146Z,1.10
2023-02-15T00:26:29.566Z,1.23
2023-02-15T00:29:52.767Z,0.90
2023-02-15T00:33:15.684Z,1.05
2023-02-15T00:36:38.550Z,1.33
2023-02-15T00:40:01.617Z,0.57
2023-02-15T00:43:26.207Z,0.77
2023-02-15T00:46:49.587Z,1.15
2023-02-15T00:50:12.942Z,0.90
2023-02-15T00:53:37.955Z,1.02
2023-02-15T00:57:03.583Z,0.95
2023-02-15T01:00:28.170Z,0.80
2023-02-15T01:03:51.132Z,0.75
2023-02-15T01:07:13.935Z,1.23
2023-02-15T01:10:41.460Z,1.15
2023-02-15T01:14:04.726Z,1.33
2023-02-15T01:17:29.122Z,0.80
2023-02-15T01:20:52.594Z,0.95
2023-02-15T01:24:16.580Z,1.40
2023-02-15T01:27:39.343Z,1.05
2023-02-15T01:31:07.273Z,0.80
2023-02-15T01:34:32.526Z,0.82
2023-02-15T01:37:56.840Z,1.20
2023-02-15T01:41:24.593Z,1.52
2023-02-15T01:44:53.178Z,1.55
2023-02-15T01:48:23.834Z,1.65
2023-02-15T01:51:50.770Z,1.20
2023-02-15T01:55:14.041Z,1.65
2023-02-15T01:58:38.431Z,1.70
2023-02-15T06:33:19.623Z,8.05
2023-02-15T06:36:41.271Z,7.82
2023-02-15T06:40:03.985Z,11.60
2023-02-15T06:43:25.716Z,15.23
2023-02-15T06:46:47.517Z,17.40
2023-02-15T06:50:12.145Z,23.55
2023-02-15T06:53:34.241Z,20.52
2023-02-15T06:56:55.960Z,25.63
2023-02-15T07:00:18.763Z,14.15
2023-02-15T07:03:40.662Z,9.23
2023-02-15T07:07:03.861Z,12.80
2023-02-15T07:10:26.309Z,12.27
2023-02-15T07:13:48.726Z,10.80
2023-02-15T07:17:27.485Z,13.60
2023-02-15T07:20:52.746Z,18.55
2023-02-15T07:24:16.288Z,15.98
2023-02-15T07:27:38.437Z,15.95
2023-02-15T07:31:00.730Z,18.17
2023-02-15T07:34:22.608Z,13.43
2023-02-15T07:37:44.359Z,15.57
2023-02-15T07:41:09.323Z,15.40
2023-02-15T07:44:31.473Z,15.20
2023-02-15T07:47:53.375Z,16.48
2023-02-15T07:51:17.038Z,13.35
2023-02-15T07:54:38.808Z,20.20
2023-02-15T07:58:02.073Z,37.72
2023-02-15T08:01:26.690Z,35.00
2023-02-15T08:04:48.820Z,24.88
2023-02-15T08:08:30.856Z,30.25
2023-02-15T08:11:52.838Z,25.38
2023-02-15T08:15:16.385Z,18.80
2023-02-15T08:18:38.339Z,13.07
2023-02-15T08:22:02.269Z,10.07
2023-02-15T08:25:24.258Z,7.38
2023-02-15T08:28:47.500Z,8.50
2023-02-15T08:32:13.098Z,11.18
2023-02-15T08:35:36.370Z,7.45
2023-02-15T08:39:00.713Z,8.05
2023-02-15T08:42:22.476Z,7.70
2023-02-15T08:45:44.334Z,5.70
2023-02-15T08:49:08.174Z,4.72
2023-02-15T08:52:30.353Z,5.53
2023-02-15T08:55:58.121Z,4.90
2023-02-15T08:59:23.211Z,4.78
2023-02-15T09:02:45.246Z,9.30
2023-02-15T09:06:08.956Z,16.48
2023-02-15T09:09:32.374Z,9.13
2023-02-15T09:12:54.574Z,7.07
2023-02-15T09:16:17.863Z,6.55
2023-02-15T09:19:39.851Z,5.75
2023-02-15T09:23:03.100Z,5.60
2023-02-15T09:26:26.759Z,8.88
2023-02-15T09:29:48.885Z,8.13
2023-02-15T09:33:10.609Z,9.43
2023-02-15T09:36:35.173Z,6.65
2023-02-15T09:39:58.635Z,9.38
2023-02-15T09:43:34.455Z,6.72
2023-02-15T09:47:19.476Z,5.45
2023-02-15T09:50:52.145Z,7.45
2023-02-15T09:54:46.885Z,5.85
2023-02-15T09:58:21.962Z,7.30
2023-02-15T10:01:54.878Z,5.88
2023-02-15T10:05:29.446Z,4.00
2023-02-15T10:09:09.177Z,4.82
2023-02-15T10:12:59.668Z,5.93
2023-02-15T10:16:33.840Z,7.18
2023-02-15T10:20:12.174Z,5.97
2023-02-15T10:23:51.940Z,9.63
2023-02-15T10:27:15.683Z,6.07
2023-02-15T10:30:48.604Z,8.07
2023-02-15T10:34:18.457Z,5.03
2023-02-15T10:37:54.659Z,6.47
2023-02-15T10:41:31.553Z,7.07
2023-02-15T10:45:18.339Z,4.57
2023-02-15T10:49:00.278Z,5.45
2023-02-15T10:52:35.708Z,5.95
2023-02-15T10:56:05.420Z,4.40
2023-02-15T10:59:53.983Z,5.22
2023-02-15T11:03:35.498Z,7.10
2023-02-15T11:07:02.002Z,5.95
2023-02-15T11:10:32.531Z,6.78
2023-02-15T11:13:58.993Z,6.28
2023-02-15T11:17:26.054Z,6.05
2023-02-15T11:20:55.525Z,6.65
2023-02-15T11:27:45.592Z,7.07
2023-02-15T11:31:18.197Z,11.27
2023-02-15T11:34:47.165Z,10.05
2023-02-15T11:38:16.852Z,4.93
2023-02-15T11:41:45.863Z,4.80
2023-02-15T11:45:23.989Z,6.05
2023-02-15T11:48:46.169Z,6.80
2023-02-15T11:52:13.126Z,6.03
2023-02-15T11:55:36.225Z,5.13
2023-02-15T11:59:01.975Z,6.43
2023-02-15T12:02:27.744Z,6.40
2023-02-15T12:05:55.889Z,8.68
2023-02-15T12:09:28.127Z,8.60
2023-02-15T12:12:50.055Z,6.22
2023-02-15T12:16:14.680Z,5.85
2023-02-15T12:19:41.897Z,11.05
2023-02-15T12:23:06.200Z,7.65
2023-02-15T12:26:29.965Z,5.20
2023-02-15T12:29:54.712Z,5.53
2023-02-15T12:33:28.674Z,6.25
2023-02-15T12:36:59.112Z,7.47
2023-02-15T12:40:23.623Z,6.43
2023-02-15T12:43:46.296Z,5.18
2023-02-15T12:47:19.813Z,4.90
2023-02-15T12:50:43.205Z,4.03
2023-02-15T12:54:23.413Z,3.42
2023-02-15T12:57:48.150Z,4.40
2023-02-15T13:01:16.677Z,7.18
2023-02-15T13:04:38.552Z,9.75
2023-02-15T13:08:02.926Z,4.63
2023-02-15T13:11:31.345Z,6.07
2023-02-15T13:14:55.882Z,5.93
2023-02-15T13:18:25.766Z,4.93
2023-02-15T13:25:16.552Z,3.63
2023-02-15T13:28:44.730Z,5.38
2023-02-15T13:32:14.718Z,4.78
2023-02-15T13:35:42.088Z,3.60
2023-02-15T13:39:18.501Z,5.55
2023-02-15T13:42:43.728Z,5.95
2023-02-15T13:46:19.151Z,4.28
2023-02-15T13:49:53.693Z,3.80
2023-02-15T13:53:30.656Z,3.47
2023-02-15T13:57:02.658Z,4.00
2023-02-15T14:00:29.379Z,4.75
2023-02-15T14:04:27.456Z,6.60
2023-02-15T14:08:00.816Z,8.45
2023-02-15T14:11:30.146Z,5.78
2023-02-15T14:15:09.797Z,3.75
2023-02-15T14:18:42.259Z,6.20
2023-02-15T14:22:14.015Z,5.38
2023-02-15T14:25:45.740Z,5.32
2023-02-15T14:29:22.425Z,7.05
2023-02-15T14:32:49.395Z,5.43
2023-02-15T14:36:15.878Z,4.68
2023-02-15T14:40:05.437Z,4.47
2023-02-15T14:43:45.957Z,7.32
2023-02-15T14:47:13.005Z,6.80
2023-02-15T14:50:45.036Z,6.68
2023-02-15T14:54:08.939Z,11.30
2023-02-15T14:57:36.378Z,6.07
2023-02-15T15:01:09.081Z,8.02
2023-02-15T15:04:35.851Z,5.60
2023-02-15T15:08:00.783Z,7.47
2023-02-15T15:11:47.787Z,8.10
2023-02-15T15:15:13.364Z,7.10
2023-02-15T15:18:48.371Z,7.95
2023-02-15T15:22:20.591Z,7.25
2023-02-15T15:25:45.846Z,5.30
2023-02-15T15:29:09.074Z,7.18
2023-02-15T15:32:35.748Z,8.73
2023-02-15T15:36:33.102Z,5.68
2023-02-15T15:40:37.175Z,4.05
2023-02-15T15:44:44.896Z,7.50
2023-02-15T15:48:26.391Z,15.48
2023-02-15T15:51:50.863Z,8.95
2023-02-15T15:55:19.188Z,12.57
2023-02-15T15:58:46.118Z,6.38
2023-02-15T16:02:09.613Z,10.63
2023-02-15T16:05:38.432Z,6.55
2023-02-15T16:09:12.885Z,5.55
2023-02-15T16:12:37.245Z,4.88
2023-02-15T16:15:59.476Z,9.32
2023-02-15T16:19:25.139Z,8.77
2023-02-15T16:22:48.897Z,5.90
2023-02-15T16:26:20.580Z,7.40
2023-02-15T16:29:42.910Z,8.77
2023-02-15T16:33:10.691Z,8.68
2023-02-15T16:36:33.130Z,14.20
2023-02-15T16:39:57.944Z,15.60
2023-02-15T16:43:27.071Z,14.35
2023-02-15T16:46:52.045Z,8.15
2023-02-15T16:50:20.927Z,11.38
2023-02-15T16:53:48.611Z,7.90
2023-02-15T16:57:20.942Z,5.35
2023-02-15T17:00:45.254Z,2.80
2023-02-15T17:04:16.063Z,3.60
2023-02-15T17:07:42.144Z,3.90
2023-02-15T17:11:19.270Z,18.20
2023-02-15T17:14:41.973Z,9.43
2023-02-15T17:18:08.981Z,6.38
2023-02-15T17:21:34.560Z,4.18
2023-02-15T17:25:01.138Z,6.85
2023-02-15T17:28:26.484Z,14.38
2023-02-15T17:31:51.310Z,5.47
2023-02-15T17:35:22.217Z,8.00
2023-02-15T17:39:03.489Z,9.60
2023-02-15T17:42:25.562Z,7.53
2023-02-15T17:45:52.084Z,10.15
2023-02-15T17:49:20.787Z,8.70
2023-02-15T17:52:44.412Z,15.82
2023-02-15T17:56:11.011Z,9.38
2023-02-15T17:59:32.895Z,5.00
2023-02-15T18:03:12.331Z,4.63
2023-02-15T18:06:53.183Z,4.60
2023-02-15T18:10:35.514Z,4.20
2023-02-15T18:14:01.474Z,6.75
2023-02-15T18:17:28.545Z,4.90
2023-02-15T18:20:51.579Z,4.10
2023-02-15T18:24:20.840Z,2.65
2023-02-15T18:27:44.123Z,2.10
2023-02-15T18:31:07.092Z,1.17
2023-02-15T18:34:32.369Z,1.15
2023-02-15T18:37:54.835Z,1.25
2023-02-15T18:41:19.308Z,2.03
2023-02-15T18:44:44.461Z,1.25
2023-02-15T18:48:08.426Z,1.10
2023-02-15T18:51:30.552Z,1.08
2023-02-15T18:54:55.482Z,1.48
2023-02-15T18:58:19.929Z,1.42
2023-02-15T19:01:43.726Z,1.10
2023-02-15T19:05:06.032Z,1.27
2023-02-15T19:08:28.142Z,1.13
2023-02-15T19:11:52.525Z,1.25
2023-02-15T19:15:18.803Z,1.05
2023-02-15T19:18:42.458Z,1.10
2023-02-15T19:22:04.870Z,1.48
2023-02-15T19:25:29.423Z,1.20
2023-02-15T19:28:52.162Z,1.13
2023-02-15T19:32:14.095Z,1.13
2023-02-15T19:35:37.461Z,1.38
2023-02-15T19:38:59.619Z,1.27
2023-02-15T19:42:25.519Z,1.13
2023-02-15T19:45:48.049Z,0.90
2023-02-15T19:49:11.748Z,1.65
2023-02-15T19:52:35.100Z,1.75
2023-02-15T19:55:57.056Z,2.35
2023-02-15T19:59:25.550Z,1.65
2023-02-15T20:02:47.904Z,1.60
2023-02-15T20:06:14.923Z,1.50
2023-02-15T20:09:40.973Z,2.30
2023-02-15T20:13:03.632Z,2.13
2023-02-15T20:16:26.480Z,2.03
2023-02-15T20:19:48.428Z,2.10
2023-02-15T20:23:19.305Z,2.35
2023-02-15T20:26:43.597Z,2.45
2023-02-15T20:30:08.550Z,2.72
2023-02-15T20:33:30.433Z,2.33
2023-02-15T20:36:52.687Z,2.08
2023-02-15T20:40:17.102Z,2.50
2023-02-15T20:43:40.521Z,2.47
2023-02-15T20:47:02.902Z,2.75
2023-02-15T20:50:27.445Z,2.90
2023-02-15T20:53:50.164Z,2.55
2023-02-15T20:57:13.748Z,2.72
2023-02-15T21:00:37.244Z,2.58
2023-02-15T21:03:59.342Z,3.25
2023-02-15T21:07:22.858Z,3.20
2023-02-15T21:10:46.458Z,3.20
2023-02-15T21:14:11.668Z,3.05
2023-02-15T21:17:35.083Z,3.75
2023-02-15T21:20:58.890Z,3.42
2023-02-15T21:24:24.890Z,3.67
2023-02-15T21:27:47.542Z,3.70
2023-02-15T21:31:18.136Z,4.65
2023-02-15T21:34:41.764Z,4.88
2023-02-15T21:38:04.052Z,5.47
2023-02-15T21:41:44.767Z,5.10
2023-02-15T21:45:32.883Z,4.80
2023-02-15T21:48:55.098Z,5.20
2023-02-15T21:52:24.676Z,5.38
2023-02-15T21:55:46.614Z,6.05
2023-02-15T21:59:11.700Z,5.35
2023-02-15T22:02:33.708Z,5.47
2023-02-15T22:05:55.808Z,6.15
2023-02-15T22:09:20.952Z,5.28
2023-02-15T22:12:43.838Z,5.80
2023-02-15T22:16:05.939Z,5.30
2023-02-15T22:19:28.866Z,6.50
2023-02-15T22:22:52.748Z,6.18
2023-02-15T22:26:22.596Z,4.35
2023-02-15T22:29:44.694Z,4.50
2023-02-15T22:33:06.416Z,6.25
2023-02-15T22:36:31.134Z,6.18
2023-02-15T22:39:53.151Z,5.30
2023-02-15T22:43:23.972Z,4.90
2023-02-15T22:46:45.566Z,5.40
2023-02-15T22:50:17.177Z,5.97
2023-02-15T22:53:39.002Z,6.53
2023-02-15T22:57:02.650Z,5.70
2023-02-15T23:00:27.558Z,5.28
2023-02-15T23:03:49.294Z,6.53
2023-02-15T23:07:15.475Z,5.93
2023-02-15T23:10:37.648Z,5.28
2023-02-15T23:13:59.692Z,6.55
2023-02-15T23:17:22.918Z,6.47
2023-02-15T23:20:45.774Z,5.72
2023-02-15T23:24:16.920Z,6.32
2023-02-15T23:27:56.721Z,6.95
2023-02-15T23:34:44.391Z,5.90
2023-02-15T23:38:18.477Z,5.22
2023-02-15T23:41:40.615Z,5.85
2023-02-15T23:45:03.661Z,7.65
2023-02-15T23:48:33.308Z,8.02
2023-02-15T23:51:58.660Z,7.55
2023-02-15T23:55:21.146Z,7.28
2023-02-15T23:58:45.160Z,6.43
